FLIGHT DETAILS
Pilot: ACV287 Karlo Siljevinac Aircraft: PMDG - 747-400F KALITTA AIR N782CK Distance: 4871NM
Departure LDZD Arrival RKSI Duration 9.22
Validation Validated Type Charter Tail Number N782CK
ZFW 245024 Block Fuel/Initial FOB 115,251/0 Flight Fuel 113,166
Passengers 0 Cargo 85000 Alternate RKSS
Departure Time 2230 Cruise Speed 450 Flight Level 37000
Flight Type IFR Aircraft Type Weight Unit Kg
Date 2017-02-21 Pilot Comments Network IVAO
Crashed No Validator Comments Flight Rating 100

 ROUTE
ROUTE
REMARKS
 FLIGHT FAILURES
Crashed OK Beacon off & Engine Running Fail KIAS Above 250 below 10000 FT Fail
Lights OFF below 10000 FT Fail Lights ON above 10000 FT Fail Stall OK
Overspeed OK Flight paused OK Refueling OK
Slew detected OK Taxi & Taxi lights off OK Take off & lights off OK
Landing & lights off OK Landed in not planned airport OK Taxi Speed Fail
Wrong altimeter in Take off Fail Wrong altimeter in Landing OK
 LANDING ANALYSIS
Landing wind 268º/6 kt Landing heading 140
Landing VS: -213.77 ft/min Landing IAS: 140.16 kt
Landing Force G 1.3 G Landing Bank 0.2
Landing Pitch 3.7 Landing Flaps 33
Navigation Lights ON Landing Lights ON
Beacon Lights OFF Strobe Lights ON
 FLIGHT MAP
 ALTITUDE CHART
 FLIGHT FINANCIAL REPORT
 MAIN EVENTS
DATE EVENTIASALTITUDE
2017-02-20 22:08:49 SIM ACARS version 1.4.00301
2017-02-20 22:08:49 BOARDING0301
2017-02-20 22:08:49 FLAPS EXTENSION 50 % 0301
2017-02-20 22:08:49 STARTING ENGINE 1 0301
2017-02-20 22:08:49 STARTING ENGINE 2 0301
2017-02-20 22:08:49 STARTING ENGINE 3 0301
2017-02-20 22:08:49 STARTING ENGINE 4 0301
2017-02-20 22:08:49 BEACON LIGHT OFF & ENGINE ON0301
2017-02-20 22:17:15 TAXI TO THE RWY 11301
2017-02-20 22:20:22 ROLLING FOR TAKE OFF41301
2017-02-20 22:20:50 TAKE OFF179303
2017-02-20 22:21:33 GEAR UP2421544
2017-02-20 22:21:42 FLAPS EXTENSION 33 % 2432045
2017-02-20 22:21:48 FLAPS EXTENSION 17 % 2492325
2017-02-20 22:21:57 IAS ABOVE 250 KNOTS BELOW 10000 ft2612657
2017-02-20 22:22:35 FLAPS EXTENSION 0 % 2755354
2017-02-20 22:24:20 LIGHTS OFF BELOW 10000 ft2539067
2017-02-20 22:38:41 CRUISE31731615
2017-02-20 22:39:51 CLIMBING31732151
2017-02-20 22:44:01 CRUISE29435248
2017-02-21 00:14:55 DESCEND30834784
2017-02-21 00:15:25 CRUISE29834679
2017-02-21 01:07:18 CLIMBING30034596
2017-02-21 01:07:48 CRUISE30334667
2017-02-21 03:37:15 CLIMBING31034587
2017-02-21 03:38:06 CRUISE30935038
2017-02-21 06:30:24 CLIMBING30735421
2017-02-21 06:30:54 CRUISE31735501
2017-02-21 07:10:46 CLIMBING31335516
2017-02-21 07:11:46 STOPPING ENGINE 1 31235510
2017-02-21 07:11:46 STOPPING ENGINE 2 31235510
2017-02-21 07:11:46 STOPPING ENGINE 3 31235510
2017-02-21 07:11:46 STOPPING ENGINE 4 31235510
2017-02-21 07:11:46 STARTING ENGINE 1 31235515
2017-02-21 07:11:46 STARTING ENGINE 2 31235515
2017-02-21 07:11:46 STARTING ENGINE 3 31235515
2017-02-21 07:11:46 STARTING ENGINE 4 31235515
2017-02-21 07:12:26 CRUISE30435448
2017-02-21 07:35:17 DESCEND29934981
2017-02-21 07:40:28 CRUISE29924269
2017-02-21 07:41:28 DESCEND28223826
2017-02-21 07:46:13 LIGHTS ON ABOVE 10000 ft30713520
2017-02-21 07:47:19 FLAPS EXTENSION 17 % 27211151
2017-02-21 07:47:49 FLAPS EXTENSION 33 % 22510357
2017-02-21 07:47:50 FLAPS EXTENSION 50 % 22410340
2017-02-21 07:48:39 GEAR DOWN2018988
2017-02-21 07:49:54 FLAPS EXTENSION 67 % 1816252
2017-02-21 07:49:56 FLAPS EXTENSION 83 % 1816154
2017-02-21 07:51:58 CRUISE1804044
2017-02-21 07:52:03 FLAPS EXTENSION 83 % 1804041
2017-02-21 07:52:03 FLAPS EXTENSION 83 % 1804041
2017-02-21 07:52:04 FLAPS EXTENSION 100 % 1804040
2017-02-21 07:52:04 FLAPS EXTENSION 83 % 1804039
2017-02-21 07:52:04 FLAPS EXTENSION 100 % 1804039
2017-02-21 07:52:04 FLAPS EXTENSION 83 % 1804039
2017-02-21 07:52:05 FLAPS EXTENSION 100 % 1804038
2017-02-21 07:52:05 FLAPS EXTENSION 83 % 1804038
2017-02-21 07:52:05 FLAPS EXTENSION 100 % 1804038
2017-02-21 07:52:05 FLAPS EXTENSION 83 % 1804038
2017-02-21 07:52:06 FLAPS EXTENSION 83 % 1804038
2017-02-21 07:52:06 FLAPS EXTENSION 83 % 1804038
2017-02-21 07:52:06 FLAPS EXTENSION 100 % 1804038
2017-02-21 07:52:06 FLAPS EXTENSION 83 % 1804037
2017-02-21 07:52:06 FLAPS EXTENSION 83 % 1804038
2017-02-21 07:52:06 FLAPS EXTENSION 83 % 1804037
2017-02-21 07:52:06 FLAPS EXTENSION 100 % 1804037
2017-02-21 07:52:06 FLAPS EXTENSION 83 % 1804037
2017-02-21 07:52:07 FLAPS EXTENSION 100 % 1804037
2017-02-21 07:52:07 FLAPS EXTENSION 100 % 1804038
2017-02-21 07:52:07 FLAPS EXTENSION 83 % 1794037
2017-02-21 07:52:07 FLAPS EXTENSION 83 % 1794037
2017-02-21 07:52:08 FLAPS EXTENSION 100 % 1794036
2017-02-21 07:52:08 FLAPS EXTENSION 100 % 1794036
2017-02-21 07:52:08 FLAPS EXTENSION 83 % 1794035
2017-02-21 07:52:08 FLAPS EXTENSION 100 % 1794035
2017-02-21 07:52:09 FLAPS EXTENSION 83 % 1794035
2017-02-21 07:52:09 FLAPS EXTENSION 83 % 1794035
2017-02-21 07:52:09 FLAPS EXTENSION 100 % 1794036
2017-02-21 07:52:09 FLAPS EXTENSION 83 % 1784035
2017-02-21 07:52:09 FLAPS EXTENSION 100 % 1784036
2017-02-21 07:52:09 FLAPS EXTENSION 83 % 1784036
2017-02-21 07:52:09 FLAPS EXTENSION 100 % 1784036
2017-02-21 07:52:09 FLAPS EXTENSION 100 % 1784035
2017-02-21 07:52:09 FLAPS EXTENSION 100 % 1784035
2017-02-21 07:52:10 FLAPS EXTENSION 83 % 1784035
2017-02-21 07:52:10 FLAPS EXTENSION 83 % 1784034
2017-02-21 07:52:10 FLAPS EXTENSION 83 % 1784033
2017-02-21 07:52:10 FLAPS EXTENSION 100 % 1774033
2017-02-21 07:52:10 FLAPS EXTENSION 83 % 1774034
2017-02-21 07:52:10 FLAPS EXTENSION 83 % 1774033
2017-02-21 07:52:11 FLAPS EXTENSION 83 % 1774033
2017-02-21 07:52:11 FLAPS EXTENSION 100 % 1774033
2017-02-21 07:52:11 FLAPS EXTENSION 100 % 1774034
2017-02-21 07:52:11 FLAPS EXTENSION 83 % 1764033
2017-02-21 07:52:11 FLAPS EXTENSION 100 % 1764034
2017-02-21 07:52:11 FLAPS EXTENSION 83 % 1764034
2017-02-21 07:52:12 FLAPS EXTENSION 100 % 1754034
2017-02-21 07:52:12 FLAPS EXTENSION 83 % 1754035
2017-02-21 07:52:12 FLAPS EXTENSION 100 % 1754035
2017-02-21 07:52:12 FLAPS EXTENSION 83 % 1744035
2017-02-21 07:52:13 FLAPS EXTENSION 83 % 1744034
2017-02-21 07:52:13 FLAPS EXTENSION 100 % 1744033
2017-02-21 07:52:13 FLAPS EXTENSION 83 % 1744034
2017-02-21 07:52:13 FLAPS EXTENSION 83 % 1744033
2017-02-21 07:52:13 FLAPS EXTENSION 100 % 1734031
2017-02-21 07:52:13 FLAPS EXTENSION 83 % 1734031
2017-02-21 07:52:14 FLAPS EXTENSION 100 % 1724029
2017-02-21 07:52:14 FLAPS EXTENSION 83 % 1724029
2017-02-21 07:52:14 FLAPS EXTENSION 83 % 1724028
2017-02-21 07:52:14 FLAPS EXTENSION 100 % 1714027
2017-02-21 07:52:14 FLAPS EXTENSION 83 % 1714027
2017-02-21 07:52:15 FLAPS EXTENSION 100 % 1714025
2017-02-21 07:52:15 FLAPS EXTENSION 83 % 1704025
2017-02-21 07:52:15 FLAPS EXTENSION 83 % 1704024
2017-02-21 07:52:15 FLAPS EXTENSION 100 % 1704024
2017-02-21 07:54:38 DESCEND1473843
2017-02-21 08:00:34 LANDING14036
2017-02-21 08:01:22 FLAPS EXTENSION 33 % 3535
2017-02-21 08:01:29 STOPPING ENGINE 2 3135
2017-02-21 08:01:29 STOPPING ENGINE 3 3135
2017-02-21 08:01:29 STARTING ENGINE 2 3135
2017-02-21 08:01:29 STARTING ENGINE 3 3135
2017-02-21 08:01:30 STOPPING ENGINE 2 3135
2017-02-21 08:01:30 STOPPING ENGINE 3 3135
2017-02-21 08:01:30 STARTING ENGINE 2 3135
2017-02-21 08:01:30 STARTING ENGINE 3 3135
2017-02-21 08:01:30 STOPPING ENGINE 2 3135
2017-02-21 08:01:30 STOPPING ENGINE 3 3135
2017-02-21 08:01:30 STARTING ENGINE 2 3135
2017-02-21 08:01:30 STARTING ENGINE 3 3135
2017-02-21 08:01:31 STOPPING ENGINE 2 3035
2017-02-21 08:01:31 STOPPING ENGINE 3 3035
2017-02-21 08:01:31 STARTING ENGINE 2 3035
2017-02-21 08:01:31 STARTING ENGINE 3 3035
2017-02-21 08:01:31 STOPPING ENGINE 2 3035
2017-02-21 08:01:31 STOPPING ENGINE 3 3035
2017-02-21 08:01:37 STARTING ENGINE 2 2835
2017-02-21 08:01:37 STARTING ENGINE 3 2835
2017-02-21 08:01:39 FLAPS EXTENSION 17 % 2535
2017-02-21 08:01:42 TAXI TO THE GATE2035
2017-02-21 08:02:25 FLAPS EXTENSION 0 % 1035
2017-02-21 08:02:30 TAXI SPEED ABOVE 25 KTS2235
 ACARS DATA
DATE IASGSALTITUDEFUEL CONSUMED OATFLIGHT STATUS
2017-02-20 22:09:48003004114BOARDING
2017-02-20 22:10:48003008214BOARDING
2017-02-20 22:11:490030012314BOARDING
2017-02-20 22:12:480030016314BOARDING
2017-02-20 22:13:490030020414BOARDING
2017-02-20 22:14:490030024514BOARDING
2017-02-20 22:15:490030028514BOARDING
2017-02-20 22:16:492230034614BOARDING
2017-02-20 22:17:498730049014TAXI TO THE RWY
2017-02-20 22:18:49303030064514TAXI TO THE RWY
2017-02-20 22:19:495530085514TAXI TO THE RWY
2017-02-20 22:20:49176179301143014TAXI TO THE RWY
2017-02-20 22:21:492492562332236010CLIMBING
2017-02-20 22:22:49272293639231852CLIMBING
2017-02-20 22:23:4924327282893584-1CLIMBING
2017-02-20 22:24:4926229796814068-4CLIMBING
2017-02-20 22:25:49312354106154556-6CLIMBING
2017-02-20 22:26:49344395125375033-9CLIMBING
2017-02-20 22:27:49344411151295482-14CLIMBING
2017-02-20 22:28:49344425174075899-19CLIMBING
2017-02-20 22:29:49344437194226292-23CLIMBING
2017-02-20 22:30:49344449212096669-27CLIMBING
2017-02-20 22:31:49344460228187029-30CLIMBING
2017-02-20 22:32:49344470242547376-33CLIMBING
2017-02-20 22:33:49344479255457715-35CLIMBING
2017-02-20 22:34:49344487267128038-38CLIMBING
2017-02-20 22:35:49344495277908358-40CLIMBING
2017-02-20 22:36:49343501288018666-42CLIMBING
2017-02-20 22:37:49342491302438963-46CLIMBING
2017-02-20 22:38:49314485316219239-47CRUISE
2017-02-20 22:39:49317493321249508-48CRUISE
2017-02-20 22:40:49312494328599771-47CLIMBING
2017-02-20 22:41:493054913371810026-50CLIMBING
2017-02-20 22:42:493094773474310269-49CLIMBING
2017-02-20 22:43:492964423512810403-49CLIMBING
2017-02-20 22:44:492854403524510630-49CRUISE
2017-02-20 22:45:493014453526110857-50CRUISE
2017-02-20 22:46:493004383526011044-49CRUISE
2017-02-20 22:47:493004363526111248-49CRUISE
2017-02-20 22:48:493004333526111448-49CRUISE
2017-02-20 22:49:493034393526511671-49CRUISE
2017-02-20 22:50:493114473525811901-49CRUISE
2017-02-20 22:51:493094423524112096-49CRUISE
2017-02-20 22:52:493094403519712297-49CRUISE
2017-02-20 22:53:493094413519612505-49CRUISE
2017-02-20 22:54:493094423518312717-49CRUISE
2017-02-20 22:55:493084413516512919-49CRUISE
2017-02-20 22:56:493064433511013132-49CRUISE
2017-02-20 22:57:493054453501713338-49CRUISE
2017-02-20 22:58:493034423500713534-49CRUISE
2017-02-20 22:59:492674423499213753-49CRUISE
2017-02-20 23:00:492884423499913977-49CRUISE
2017-02-20 23:01:493054433499614183-49CRUISE
2017-02-20 23:02:493064443499614390-49CRUISE
2017-02-20 23:03:493054463499614606-49CRUISE
2017-02-20 23:04:493084493501214827-49CRUISE
2017-02-20 23:05:493014433505615020-50CRUISE
2017-02-20 23:06:493034523508415251-52CRUISE
2017-02-20 23:07:493084603509715483-51CRUISE
2017-02-20 23:08:493094603511715692-51CRUISE
2017-02-20 23:09:493074613512415902-49CRUISE
2017-02-20 23:10:493074613512416108-49CRUISE
2017-02-20 23:11:493074533512716309-50CRUISE
2017-02-20 23:12:493094573513516530-50CRUISE
2017-02-20 23:13:493054473514516709-50CRUISE
2017-02-20 23:14:493094553515116934-50CRUISE
2017-02-20 23:15:493054473515017122-50CRUISE
2017-02-20 23:16:493094523514017342-51CRUISE
2017-02-20 23:17:493094533514617547-52CRUISE
2017-02-20 23:18:493094553515717763-53CRUISE
2017-02-20 23:19:493094593516917979-51CRUISE
2017-02-20 23:20:493094583517918186-53CRUISE
2017-02-20 23:21:493094563518218384-52CRUISE
2017-02-20 23:22:493054593509118598-57CRUISE
2017-02-20 23:23:493064603506118801-57CRUISE
2017-02-20 23:24:493064583504119001-58CRUISE
2017-02-20 23:25:493064573502919199-58CRUISE
2017-02-20 23:26:493054553501319397-59CRUISE
2017-02-20 23:27:503054533500119596-59CRUISE
2017-02-20 23:28:493054523498819793-60CRUISE
2017-02-20 23:29:503054503497619991-60CRUISE
2017-02-20 23:30:503054493496120191-60CRUISE
2017-02-20 23:31:503044483495120393-60CRUISE
2017-02-20 23:32:503054453494220599-60CRUISE
2017-02-20 23:33:503054453493720803-60CRUISE
2017-02-20 23:34:503054463493921006-60CRUISE
2017-02-20 23:35:503054473494621211-60CRUISE
2017-02-20 23:36:503054483495321417-60CRUISE
2017-02-20 23:37:503054483496221623-60CRUISE
2017-02-20 23:38:503054493497021828-60CRUISE
2017-02-20 23:39:503054503497922033-60CRUISE
2017-02-20 23:40:503034433494022211-61CRUISE
2017-02-20 23:41:503044453493222420-61CRUISE
2017-02-20 23:42:503054463493622627-61CRUISE
2017-02-20 23:43:502944483494222836-61CRUISE
2017-02-20 23:44:502934593495223074-61CRUISE
2017-02-20 23:45:502974723495823307-61CRUISE
2017-02-20 23:46:503004853496123547-61CRUISE
2017-02-20 23:47:503024993496223783-61CRUISE
2017-02-20 23:48:503055123496324022-61CRUISE
2017-02-20 23:49:503055213496224247-61CRUISE
2017-02-20 23:50:503055273496124469-61CRUISE
2017-02-20 23:51:503155313496824684-62CRUISE
2017-02-20 23:52:503104513496224744-62CRUISE
2017-02-20 23:53:503004543496124932-62CRUISE
2017-02-20 23:54:503054643495125150-62CRUISE
2017-02-20 23:55:503054653494125356-62CRUISE
2017-02-20 23:56:5004753492525583-63CRUISE
2017-02-20 23:57:503054903491625823-63CRUISE
2017-02-20 23:58:503044903490526032-63CRUISE
2017-02-20 23:59:503034953489626244-63CRUISE
2017-02-21 00:00:503034973488626451-63CRUISE
2017-02-21 00:01:503044983488226652-64CRUISE
2017-02-21 00:02:503035033485826869-64CRUISE
2017-02-21 00:03:503045023485327073-64CRUISE
2017-02-21 00:04:503045033486127277-64CRUISE
2017-02-21 00:05:503045023487127478-64CRUISE
2017-02-21 00:06:503045023488127680-64CRUISE
2017-02-21 00:07:503045023488827880-64CRUISE
2017-02-21 00:08:503045023489228082-64CRUISE
2017-02-21 00:09:503044983489828272-64CRUISE
2017-02-21 00:10:503044963489728468-64CRUISE
2017-02-21 00:11:503044973489028664-64CRUISE
2017-02-21 00:12:503025033487028877-64CRUISE
2017-02-21 00:13:503025043484829080-64CRUISE
2017-02-21 00:14:503005043482129278-64CRUISE
2017-02-21 00:15:502994993467329441-63CRUISE
2017-02-21 00:16:502995023466229644-63CRUISE
2017-02-21 00:17:503005033465229844-63CRUISE
2017-02-21 00:18:503005053464230043-63CRUISE
2017-02-21 00:19:503005063463930243-63CRUISE
2017-02-21 00:20:502995053463830437-63CRUISE
2017-02-21 00:21:503005063463730636-63CRUISE
2017-02-21 00:22:503005053463830835-63CRUISE
2017-02-21 00:23:503005053464231030-63CRUISE
2017-02-21 00:24:503005053464731230-63CRUISE
2017-02-21 00:25:503005043465431425-63CRUISE
2017-02-21 00:26:503005033465931617-64CRUISE
2017-02-21 00:27:503005023466631813-64CRUISE
2017-02-21 00:28:502975053466032014-64CRUISE
2017-02-21 00:29:502995063464132214-63CRUISE
2017-02-21 00:30:503005083463132410-63CRUISE
2017-02-21 00:31:502995083462032608-63CRUISE
2017-02-21 00:32:502995083461032804-63CRUISE
2017-02-21 00:33:502985103457233002-63CRUISE
2017-02-21 00:34:502975103453933199-63CRUISE
2017-02-21 00:35:502975213443333416-63CRUISE
2017-02-21 00:36:502965193442233606-63CRUISE
2017-02-21 00:37:502965203441533798-63CRUISE
2017-02-21 00:38:502965203441433993-63CRUISE
2017-02-21 00:39:502965203440734187-63CRUISE
2017-02-21 00:40:502965203440234377-63CRUISE
2017-02-21 00:41:502965203440134572-63CRUISE
2017-02-21 00:42:512965213440034766-63CRUISE
2017-02-21 00:43:512965203439934961-63CRUISE
2017-02-21 00:44:512965213439735154-63CRUISE
2017-02-21 00:45:512965223439335350-63CRUISE
2017-02-21 00:46:512955133438635550-63CRUISE
2017-02-21 00:47:512955093438235746-63CRUISE
2017-02-21 00:48:512965103438135937-63CRUISE
2017-02-21 00:49:512945073440036124-63CRUISE
2017-02-21 00:50:512955093439136320-63CRUISE
2017-02-21 00:51:512965093439036515-63CRUISE
2017-02-21 00:52:512965093439236710-63CRUISE
2017-02-21 00:53:512955083439436898-63CRUISE
2017-02-21 00:54:512965083439537094-63CRUISE
2017-02-21 00:55:512965083439637287-63CRUISE
2017-02-21 00:56:512965083439837482-63CRUISE
2017-02-21 00:57:512965093439937675-63CRUISE
2017-02-21 00:58:512965083440037868-63CRUISE
2017-02-21 00:59:512965423440738075-63CRUISE
2017-02-21 01:00:512965393440238266-63CRUISE
2017-02-21 01:01:512975343440738476-62CRUISE
2017-02-21 01:02:512965383438838678-61CRUISE
2017-02-21 01:03:512955373437738871-61CRUISE
2017-02-21 01:04:512955383437339062-61CRUISE
2017-02-21 01:05:512955383437339256-61CRUISE
2017-02-21 01:06:512955393437539449-61CRUISE
2017-02-21 01:07:513025413466739665-61CRUISE
2017-02-21 01:08:513015403467539856-61CRUISE
2017-02-21 01:09:513005403466840048-61CRUISE
2017-02-21 01:10:513005393465840240-61CRUISE
2017-02-21 01:11:513005403464940434-61CRUISE
2017-02-21 01:12:513005393464440627-61CRUISE
2017-02-21 01:13:513005403464240819-61CRUISE
2017-02-21 01:14:513005403464141012-61CRUISE
2017-02-21 01:15:513005413464141208-61CRUISE
2017-02-21 01:16:513005413464641401-61CRUISE
2017-02-21 01:17:513005413465341595-61CRUISE
2017-02-21 01:18:513005413466141790-61CRUISE
2017-02-21 01:19:512985413458441980-62CRUISE
2017-02-21 01:20:512985413456942173-62CRUISE
2017-02-21 01:21:512995413455942369-62CRUISE
2017-02-21 01:22:512985413455642564-62CRUISE
2017-02-21 01:23:512985403455442757-62CRUISE
2017-02-21 01:24:512955423453942946-64CRUISE
2017-02-21 01:25:512965473447143144-64CRUISE
2017-02-21 01:26:512975483446143337-64CRUISE
2017-02-21 01:27:512975483445743527-64CRUISE
2017-02-21 01:28:512975483445743719-64CRUISE
2017-02-21 01:29:512975493445843919-65CRUISE
2017-02-21 01:30:512975463445944110-65CRUISE
2017-02-21 01:31:512975463446044299-65CRUISE
2017-02-21 01:32:512975463446144488-65CRUISE
2017-02-21 01:33:512985443446744674-65CRUISE
2017-02-21 01:34:512985433447844863-65CRUISE
2017-02-21 01:35:512985433448845052-65CRUISE
2017-02-21 01:36:512985423449445240-65CRUISE
2017-02-21 01:37:512985423449745431-65CRUISE
2017-02-21 01:38:512975423449345618-65CRUISE
2017-02-21 01:39:512975423449345809-65CRUISE
2017-02-21 01:40:512975423449346000-65CRUISE
2017-02-21 01:41:512985423449446190-65CRUISE
2017-02-21 01:42:512955383445246370-64CRUISE
2017-02-21 01:43:512965393443146561-64CRUISE
2017-02-21 01:44:512965393442146748-64CRUISE
2017-02-21 01:45:512965383441046937-64CRUISE
2017-02-21 01:46:512905473439147142-65CRUISE
2017-02-21 01:47:512975513448947344-65CRUISE
2017-02-21 01:48:512975523448747536-65CRUISE
2017-02-21 01:49:512975533447747727-65CRUISE
2017-02-21 01:50:512975533446647917-65CRUISE
2017-02-21 01:51:512955543441748102-64CRUISE
2017-02-21 01:52:512955553440648296-64CRUISE
2017-02-21 01:53:512955563439648484-65CRUISE
2017-02-21 01:54:512955563438648676-65CRUISE
2017-02-21 01:55:512955573437548869-65CRUISE
2017-02-21 01:56:512955563436749058-65CRUISE
2017-02-21 01:57:522955583436549250-65CRUISE
2017-02-21 01:58:522955573436549438-65CRUISE
2017-02-21 01:59:522955583436649626-65CRUISE
2017-02-21 02:00:522965573437049813-65CRUISE
2017-02-21 02:01:522965573437650000-65CRUISE
2017-02-21 02:02:522965573438350185-65CRUISE
2017-02-21 02:03:522965573439150373-64CRUISE
2017-02-21 02:04:522965563439950562-64CRUISE
2017-02-21 02:05:522965583440650751-64CRUISE
2017-02-21 02:06:522965583441450941-64CRUISE
2017-02-21 02:07:522965583442151127-64CRUISE
2017-02-21 02:08:522965583442951312-64CRUISE
2017-02-21 02:09:522975573443551499-64CRUISE
2017-02-21 02:10:522975573444151687-64CRUISE
2017-02-21 02:11:522945573441951879-65CRUISE
2017-02-21 02:12:522955593437052071-65CRUISE
2017-02-21 02:13:522975543437952257-64CRUISE
2017-02-21 02:14:522975553439052450-64CRUISE
2017-02-21 02:15:522965543440052644-64CRUISE
2017-02-21 02:16:522965543440252839-65CRUISE
2017-02-21 02:17:522965543440353035-65CRUISE
2017-02-21 02:18:522965543440353238-65CRUISE
2017-02-21 02:19:522965553440353438-65CRUISE
2017-02-21 02:20:522965553440453644-65CRUISE
2017-02-21 02:21:522955563440353852-65CRUISE
2017-02-21 02:22:522955563440454057-65CRUISE
2017-02-21 02:23:522965573440354270-65CRUISE
2017-02-21 02:24:522955563440454475-65CRUISE
2017-02-21 02:25:522955583440354692-64CRUISE
2017-02-21 02:26:522955553439254901-65CRUISE
2017-02-21 02:27:522945553440155120-65CRUISE
2017-02-21 02:28:522945553440155342-65CRUISE
2017-02-21 02:29:522935553440155566-65CRUISE
2017-02-21 02:30:522915523440155792-65CRUISE
2017-02-21 02:31:522895493440156019-65CRUISE
2017-02-21 02:32:522875463440256245-65CRUISE
2017-02-21 02:33:522845433440256475-65CRUISE
2017-02-21 02:34:522815403440056701-65CRUISE
2017-02-21 02:35:522785393440356932-65CRUISE
2017-02-21 02:36:522745343440357152-65CRUISE
2017-02-21 02:37:522715283436257372-64CRUISE
2017-02-21 02:38:522665213434957590-64CRUISE
2017-02-21 02:39:522615133431857806-63CRUISE
2017-02-21 02:40:522555053430758022-63CRUISE
2017-02-21 02:41:522504973429458238-63CRUISE
2017-02-21 02:42:522444883429258452-63CRUISE
2017-02-21 02:43:522394813428958668-63CRUISE
2017-02-21 02:44:522344743428758878-63CRUISE
2017-02-21 02:45:522314693428659091-63CRUISE
2017-02-21 02:46:522284643428459303-63CRUISE
2017-02-21 02:47:522254603428259516-63CRUISE
2017-02-21 02:48:522234573428159732-63CRUISE
2017-02-21 02:49:522244543431059947-63CRUISE
2017-02-21 02:50:522234523432060157-63CRUISE
2017-02-21 02:51:522224503433060374-63CRUISE
2017-02-21 02:52:522224503433260588-63CRUISE
2017-02-21 02:53:522234503430760796-62CRUISE
2017-02-21 02:54:522234493429661009-62CRUISE
2017-02-21 02:55:522234493429061224-62CRUISE
2017-02-21 02:56:522234503428861434-62CRUISE
2017-02-21 02:57:522244513428861644-62CRUISE
2017-02-21 02:58:522254523428761855-62CRUISE
2017-02-21 02:59:522294513441962067-63CRUISE
2017-02-21 03:00:522314553446162285-63CRUISE
2017-02-21 03:01:522354603447362501-63CRUISE
2017-02-21 03:02:522404673448662717-63CRUISE
2017-02-21 03:03:522474773449962936-63CRUISE
2017-02-21 03:04:522544883450663154-63CRUISE
2017-02-21 03:05:522624993451263375-63CRUISE
2017-02-21 03:06:522715113451863595-63CRUISE
2017-02-21 03:07:522835283452663820-63CRUISE
2017-02-21 03:08:532975483452964047-63CRUISE
2017-02-21 03:09:532985493453364233-63CRUISE
2017-02-21 03:10:522985493453764419-63CRUISE
2017-02-21 03:11:532985493454064604-63CRUISE
2017-02-21 03:12:532985493454364788-63CRUISE
2017-02-21 03:13:532985493454564969-63CRUISE
2017-02-21 03:14:532985493454765156-63CRUISE
2017-02-21 03:15:532985493454965340-63CRUISE
2017-02-21 03:16:532985493455065523-63CRUISE
2017-02-21 03:17:532985493455165707-63CRUISE
2017-02-21 03:18:532985493455165891-63CRUISE
2017-02-21 03:19:532985493455166071-63CRUISE
2017-02-21 03:20:532985493455166255-63CRUISE
2017-02-21 03:21:532985493455166438-63CRUISE
2017-02-21 03:22:532985493455066623-63CRUISE
2017-02-21 03:23:532985493455066805-63CRUISE
2017-02-21 03:24:532985493454966986-63CRUISE
2017-02-21 03:25:532985493454867172-63CRUISE
2017-02-21 03:26:532985493454767354-63CRUISE
2017-02-21 03:27:532985493454667534-63CRUISE
2017-02-21 03:28:532985503454567716-63CRUISE
2017-02-21 03:29:532985503454467897-63CRUISE
2017-02-21 03:30:532995433454268083-63CRUISE
2017-02-21 03:31:532985423453968268-63CRUISE
2017-02-21 03:32:532985423453568448-63CRUISE
2017-02-21 03:33:532985433453268633-63CRUISE
2017-02-21 03:34:532985433452868819-63CRUISE
2017-02-21 03:35:532985433452568999-63CRUISE
2017-02-21 03:36:532985433452269180-63CRUISE
2017-02-21 03:37:533095443502769395-62CLIMBING
2017-02-21 03:38:533075423505169578-62CRUISE
2017-02-21 03:39:533075423506169761-62CRUISE
2017-02-21 03:40:533075423506669947-62CRUISE
2017-02-21 03:41:533075423506870130-62CRUISE
2017-02-21 03:42:533075343507270322-62CRUISE
2017-02-21 03:43:533065323506470503-62CRUISE
2017-02-21 03:44:533065323505470688-62CRUISE
2017-02-21 03:45:533075323504670872-61CRUISE
2017-02-21 03:46:533065323504571058-61CRUISE
2017-02-21 03:47:533065403504371245-61CRUISE
2017-02-21 03:48:533065403504171433-61CRUISE
2017-02-21 03:49:533065403504071620-61CRUISE
2017-02-21 03:50:533065403503871805-61CRUISE
2017-02-21 03:51:533065403503771986-61CRUISE
2017-02-21 03:52:533065403503572167-61CRUISE
2017-02-21 03:53:533065403503472350-61CRUISE
2017-02-21 03:54:533065403503272535-61CRUISE
2017-02-21 03:55:533065413503172719-61CRUISE
2017-02-21 03:56:533065413503072903-61CRUISE
2017-02-21 03:57:533065413502973087-61CRUISE
2017-02-21 03:58:533065413502873273-61CRUISE
2017-02-21 03:59:533065413502773455-61CRUISE
2017-02-21 04:00:533065413502673641-61CRUISE
2017-02-21 04:01:533065423502673826-61CRUISE
2017-02-21 04:02:533065423502574011-61CRUISE
2017-02-21 04:03:533065423502474194-61CRUISE
2017-02-21 04:04:533065423502474374-61CRUISE
2017-02-21 04:05:533105343520174549-57CRUISE
2017-02-21 04:06:533105333521174731-57CRUISE
2017-02-21 04:07:533095303521774916-57CRUISE
2017-02-21 04:08:533095303521675100-57CRUISE
2017-02-21 04:09:533095413521475290-56CRUISE
2017-02-21 04:10:533095413521175477-56CRUISE
2017-02-21 04:11:533095413520975657-56CRUISE
2017-02-21 04:12:533095413520675841-56CRUISE
2017-02-21 04:13:533095413520676027-56CRUISE
2017-02-21 04:14:533095413520576207-56CRUISE
2017-02-21 04:15:533095413520576388-56CRUISE
2017-02-21 04:16:533095413520776570-56CRUISE
2017-02-21 04:17:533095423521176754-56CRUISE
2017-02-21 04:18:533095423521776936-57CRUISE
2017-02-21 04:19:533105433522277120-57CRUISE
2017-02-21 04:20:533095443522777302-57CRUISE
2017-02-21 04:21:533105443523177487-57CRUISE
2017-02-21 04:22:533105453523577670-57CRUISE
2017-02-21 04:23:543105453523777852-57CRUISE
2017-02-21 04:24:533105453523978037-57CRUISE
2017-02-21 04:25:543105453524178218-57CRUISE
2017-02-21 04:26:543105453524278398-57CRUISE
2017-02-21 04:27:543105443524278578-57CRUISE
2017-02-21 04:28:543105433524278757-57CRUISE
2017-02-21 04:29:543105423524078935-57CRUISE
2017-02-21 04:30:543105413523879116-57CRUISE
2017-02-21 04:31:543105403523679294-57CRUISE
2017-02-21 04:32:543105393523379473-57CRUISE
2017-02-21 04:33:543105383523179655-57CRUISE
2017-02-21 04:34:543105373522779834-57CRUISE
2017-02-21 04:35:543095363522580010-57CRUISE
2017-02-21 04:36:543095343522380192-57CRUISE
2017-02-21 04:37:543095343522180373-57CRUISE
2017-02-21 04:38:543135263521080538-58CRUISE
2017-02-21 04:39:543095223518880704-58CRUISE
2017-02-21 04:40:543095213517880884-58CRUISE
2017-02-21 04:41:543095213517381062-58CRUISE
2017-02-21 04:42:543095213517381247-58CRUISE
2017-02-21 04:43:543095203517281428-58CRUISE
2017-02-21 04:44:543095213517281610-58CRUISE
2017-02-21 04:45:543095203517281792-58CRUISE
2017-02-21 04:46:543095213517281968-58CRUISE
2017-02-21 04:47:543065253517182157-57CRUISE
2017-02-21 04:48:543095293516982347-57CRUISE
2017-02-21 04:49:543095293516882528-57CRUISE
2017-02-21 04:50:543095303516882709-57CRUISE
2017-02-21 04:51:543095313516882891-57CRUISE
2017-02-21 04:52:543095313516983075-56CRUISE
2017-02-21 04:53:543095323516983253-56CRUISE
2017-02-21 04:54:543095323517083433-56CRUISE
2017-02-21 04:55:543095343517183614-56CRUISE
2017-02-21 04:56:543095333517383794-56CRUISE
2017-02-21 04:57:543095343517683972-56CRUISE
2017-02-21 04:58:543095343517884153-56CRUISE
2017-02-21 04:59:543095353518284336-56CRUISE
2017-02-21 05:00:543095373519184520-56CRUISE
2017-02-21 05:01:543095353518884700-56CRUISE
2017-02-21 05:02:543095353518784879-56CRUISE
2017-02-21 05:03:543095353518985056-56CRUISE
2017-02-21 05:04:543095353519385233-56CRUISE
2017-02-21 05:05:543095353519585408-56CRUISE
2017-02-21 05:06:543095353519785583-56CRUISE
2017-02-21 05:07:543095343519885764-56CRUISE
2017-02-21 05:08:543095343519885944-56CRUISE
2017-02-21 05:09:543095343519786121-56CRUISE
2017-02-21 05:10:543095333518986298-56CRUISE
2017-02-21 05:11:543095333517986475-56CRUISE
2017-02-21 05:12:543095323517086650-56CRUISE
2017-02-21 05:13:543095323516686826-56CRUISE
2017-02-21 05:14:543085253515686993-56CRUISE
2017-02-21 05:15:543085253514587165-56CRUISE
2017-02-21 05:16:543085253513587345-56CRUISE
2017-02-21 05:17:543085103513487522-56CRUISE
2017-02-21 05:18:543095143515887705-57CRUISE
2017-02-21 05:19:543095143516987887-57CRUISE
2017-02-21 05:20:543095133517388063-57CRUISE
2017-02-21 05:21:543095123517388237-57CRUISE
2017-02-21 05:22:543095133517288415-57CRUISE
2017-02-21 05:23:543095123517088591-57CRUISE
2017-02-21 05:24:543085093510888758-57CRUISE
2017-02-21 05:25:543075083509788933-57CRUISE
2017-02-21 05:26:543075093509189107-57CRUISE
2017-02-21 05:27:543075083509089282-57CRUISE
2017-02-21 05:28:543075073509189456-57CRUISE
2017-02-21 05:29:543075073509289634-57CRUISE
2017-02-21 05:30:543075073509489811-57CRUISE
2017-02-21 05:31:543075073509689986-57CRUISE
2017-02-21 05:32:543085073509790164-57CRUISE
2017-02-21 05:33:543075053509990337-57CRUISE
2017-02-21 05:34:543085053510090514-57CRUISE
2017-02-21 05:35:553085053510190691-57CRUISE
2017-02-21 05:36:553085043510290867-57CRUISE
2017-02-21 05:37:543085043510291040-57CRUISE
2017-02-21 05:38:553085043510191219-57CRUISE
2017-02-21 05:39:553075043509991393-57CRUISE
2017-02-21 05:40:553075043509691567-57CRUISE
2017-02-21 05:41:553075043509391741-57CRUISE
2017-02-21 05:42:553075043508891916-57CRUISE
2017-02-21 05:43:553075043508592092-57CRUISE
2017-02-21 05:44:553075033508292265-57CRUISE
2017-02-21 05:45:553075043507992436-57CRUISE
2017-02-21 05:46:553075043507892608-57CRUISE
2017-02-21 05:47:553075033507692782-57CRUISE
2017-02-21 05:48:553075033507692959-57CRUISE
2017-02-21 05:49:553075303507793136-57CRUISE
2017-02-21 05:50:553075313507693308-57CRUISE
2017-02-21 05:51:553075323507793482-57CRUISE
2017-02-21 05:52:553075313507993655-57CRUISE
2017-02-21 05:53:553075313508093830-57CRUISE
2017-02-21 05:54:553075303508294001-57CRUISE
2017-02-21 05:55:553075303508694175-57CRUISE
2017-02-21 05:56:553075293508894347-57CRUISE
2017-02-21 05:57:553075293509194520-57CRUISE
2017-02-21 05:58:553075283509294694-57CRUISE
2017-02-21 05:59:553075283509494865-57CRUISE
2017-02-21 06:00:553075283509695040-57CRUISE
2017-02-21 06:01:553075263509795215-57CRUISE
2017-02-21 06:02:553075263509795384-57CRUISE
2017-02-21 06:03:553075273509795557-57CRUISE
2017-02-21 06:04:553075263509795731-57CRUISE
2017-02-21 06:05:553075273509795903-57CRUISE
2017-02-21 06:06:553085263509696075-57CRUISE
2017-02-21 06:07:553075253509696245-57CRUISE
2017-02-21 06:08:553075253509596420-57CRUISE
2017-02-21 06:09:553085253510596588-57CRUISE
2017-02-21 06:10:553115173515896751-55CRUISE
2017-02-21 06:11:553095153518496920-55CRUISE
2017-02-21 06:12:553095153519497094-55CRUISE
2017-02-21 06:13:553094923520197271-55CRUISE
2017-02-21 06:14:553094913520197442-55CRUISE
2017-02-21 06:15:553094903520097614-55CRUISE
2017-02-21 06:16:553094903520097789-55CRUISE
2017-02-21 06:17:553094903520197962-55CRUISE
2017-02-21 06:18:553094903520198134-55CRUISE
2017-02-21 06:19:553094903520198309-55CRUISE
2017-02-21 06:20:553094903520198478-55CRUISE
2017-02-21 06:21:553094903520098650-55CRUISE
2017-02-21 06:22:553094903520198823-55CRUISE
2017-02-21 06:23:553094903520198994-55CRUISE
2017-02-21 06:24:553094903520199165-55CRUISE
2017-02-21 06:25:553094903520199337-55CRUISE
2017-02-21 06:26:553094893520199508-55CRUISE
2017-02-21 06:27:553094893520199682-55CRUISE
2017-02-21 06:28:553095283520399860-55CRUISE
2017-02-21 06:29:5530953235202100029-55CRUISE
2017-02-21 06:30:5531754735501100244-54CRUISE
2017-02-21 06:31:5531554335512100414-54CRUISE
2017-02-21 06:32:5531454235522100586-54CRUISE
2017-02-21 06:33:5531454235524100756-54CRUISE
2017-02-21 06:34:5531454235525100928-54CRUISE
2017-02-21 06:35:5531454235525101099-54CRUISE
2017-02-21 06:36:5531454235525101272-54CRUISE
2017-02-21 06:37:5531454235525101446-54CRUISE
2017-02-21 06:38:5531454235525101614-54CRUISE
2017-02-21 06:39:5531454235525101785-54CRUISE
2017-02-21 06:40:5531454135525101958-54CRUISE
2017-02-21 06:41:5531454135525102131-54CRUISE
2017-02-21 06:42:5531454035525102303-54CRUISE
2017-02-21 06:43:5531454135525102474-54CRUISE
2017-02-21 06:44:5531454135525102644-54CRUISE
2017-02-21 06:45:5631454235515102818-53CRUISE
2017-02-21 06:46:5631554735541103001-49CRUISE
2017-02-21 06:47:5531554535526103172-51CRUISE
2017-02-21 06:48:5531454535529103344-50CRUISE
2017-02-21 06:49:5631454835519103526-47CRUISE
2017-02-21 06:50:5631455035527103702-46CRUISE
2017-02-21 06:51:5631554935528103875-47CRUISE
2017-02-21 06:52:5631454535524104038-50CRUISE
2017-02-21 06:53:5631454535525104210-49CRUISE
2017-02-21 06:54:5631154535530104380-48CRUISE
2017-02-21 06:55:5631955335529104567-48CRUISE
2017-02-21 06:56:5631456735509104764-52CRUISE
2017-02-21 06:57:5631457335512104943-52CRUISE
2017-02-21 06:58:5631457435517105116-51CRUISE
2017-02-21 06:59:5631357735510105294-48CRUISE
2017-02-21 07:00:5631458135501105471-49CRUISE
2017-02-21 07:01:5631458335497105642-48CRUISE
2017-02-21 07:02:5631559135499105830-47CRUISE
2017-02-21 07:03:5631459035498105998-48CRUISE
2017-02-21 07:04:5631458935497106167-48CRUISE
2017-02-21 07:05:5631558635497106332-51CRUISE
2017-02-21 07:06:5631458735496106506-50CRUISE
2017-02-21 07:07:5631457635490106674-51CRUISE
2017-02-21 07:08:5631554535499106848-52CRUISE
2017-02-21 07:09:5631153935460106999-54CRUISE
2017-02-21 07:10:5631253735516107150-53CLIMBING
2017-02-21 07:11:5630552435477107163-53CLIMBING
2017-02-21 07:12:5630553235440107330-52CRUISE
2017-02-21 07:13:5630653335433107497-51CRUISE
2017-02-21 07:14:5630853535418107667-50CRUISE
2017-02-21 07:15:5630853735415107836-50CRUISE
2017-02-21 07:16:5630853935396108008-49CRUISE
2017-02-21 07:17:5631154235298108177-48CRUISE
2017-02-21 07:18:5630754335279108345-46CRUISE
2017-02-21 07:19:5630954435255108514-49CRUISE
2017-02-21 07:20:5630554635228108683-47CRUISE
2017-02-21 07:21:5630754735199108851-47CRUISE
2017-02-21 07:22:5630954835170109020-46CRUISE
2017-02-21 07:23:5630654935143109185-47CRUISE
2017-02-21 07:24:5630655035116109353-49CRUISE
2017-02-21 07:25:5630655335022109522-47CRUISE
2017-02-21 07:26:5630455335011109687-47CRUISE
2017-02-21 07:27:5630555335004109854-47CRUISE
2017-02-21 07:28:5630555435003110021-47CRUISE
2017-02-21 07:29:5630555435004110186-47CRUISE
2017-02-21 07:30:5630555535004110355-47CRUISE
2017-02-21 07:31:5630555535005110519-46CRUISE
2017-02-21 07:32:5630555535005110685-46CRUISE
2017-02-21 07:33:5630357935004110851-46CRUISE
2017-02-21 07:34:5629957135007111016-46CRUISE
2017-02-21 07:35:5632358732418111119-43DESCEND
2017-02-21 07:36:5635057128939111180-38DESCEND
2017-02-21 07:37:5629650228025111241-35DESCEND
2017-02-21 07:38:5630047426234111302-31DESCEND
2017-02-21 07:39:5632244124347111364-27DESCEND
2017-02-21 07:40:5629336424266111425-26CRUISE
2017-02-21 07:41:5628033222860111485-24DESCEND
2017-02-21 07:42:5627238418664111547-18DESCEND
2017-02-21 07:43:5629037817214111617-15DESCEND
2017-02-21 07:44:5631835215603111678-12DESCEND
2017-02-21 07:45:5630932714078111739-10DESCEND
2017-02-21 07:46:5628932111855111800-6DESCEND
2017-02-21 07:47:5621526010180111860-4DESCEND
2017-02-21 07:48:561962328394111922-3DESCEND
2017-02-21 07:49:571811946148111985-2DESCEND
2017-02-21 07:50:561771824038112050-2DESCEND
2017-02-21 07:51:571791794045112381-2DESCEND
2017-02-21 07:52:561461463997112654-2CRUISE
2017-02-21 07:53:561461454007113011-2CRUISE
2017-02-21 07:54:561461453621113308-2DESCEND
2017-02-21 07:55:561461442856113552-2DESCEND
2017-02-21 07:56:561461432093113790-2DESCEND
2017-02-21 07:57:561451431731114017-1DESCEND
2017-02-21 07:58:5614614111611142651DESCEND
2017-02-21 07:59:571471404551145002DESCEND
2017-02-21 08:00:56122116351146813LANDED
2017-02-21 08:01:5701351147833TAXI TO THE GATE
2017-02-21 08:02:563840351150063TAXI TO THE GATE
2017-02-21 08:03:571414351151873TAXI TO THE GATE